Time;durP1;ratioP1;P1;durP2;ratioP2;P2;SDS_P1;SDS_P2;PMS_P1;PMS_P2;Temp;Humidity;BMP_temperature;BMP_pressure;BME280_temperature;BME280_humidity;BME280_pressure;Samples;Min_cycle;Max_cycle;Signal;HPM_P1;HPM_P2
2024/01/14 00:00:46;;;;;;;63.20;29.27;;;;;;;;;;7368070;19;21095;-79
2024/01/14 00:03:11;;;;;;;56.75;28.08;;;;;;;;;;7362812;19;20957;-79
2024/01/14 00:05:36;;;;;;;53.88;28.00;;;;;;;;;;7366769;19;20035;-77
2024/01/14 00:08:02;;;;;;;58.22;28.30;;;;;;;;;;7370013;19;20287;-78
2024/01/14 00:10:27;;;;;;;59.83;27.90;;;;;;;;;;7362147;19;20296;-80
2024/01/14 00:12:52;;;;;;;62.20;29.73;;;;;;;;;;7372025;19;20006;-78
2024/01/14 00:15:18;;;;;;;60.22;29.02;;;;;;;;;;7366453;19;20283;-79
2024/01/14 00:17:45;;;;;;;56.28;27.10;;;;;;;;;;7352811;19;20917;-79
2024/01/14 00:20:10;;;;;;;62.67;28.90;;;;;;;;;;7372232;19;20027;-81
2024/01/14 00:22:35;;;;;;;57.65;28.33;;;;;;;;;;7361215;19;20015;-78
2024/01/14 00:25:00;;;;;;;57.70;26.58;;;;;;;;;;7367786;19;20009;-78
2024/01/14 00:27:26;;;;;;;57.50;26.83;;;;;;;;;;7365513;19;20299;-81
2024/01/14 00:29:51;;;;;;;54.80;27.48;;;;;;;;;;7344256;19;20911;-82
2024/01/14 00:32:16;;;;;;;55.03;27.53;;;;;;;;;;7358389;19;20290;-81
2024/01/14 00:34:41;;;;;;;55.10;26.73;;;;;;;;;;7365614;19;20286;-84
2024/01/14 00:37:06;;;;;;;61.83;27.85;;;;;;;;;;7367401;19;20007;-80
2024/01/14 00:39:35;;;;;;;57.63;27.27;;;;;;;;;;7365721;19;20278;-82
2024/01/14 00:42:01;;;;;;;58.13;28.58;;;;;;;;;;7370702;19;20011;-76
2024/01/14 00:44:26;;;;;;;58.58;27.45;;;;;;;;;;7354367;19;20006;-79
2024/01/14 00:46:52;;;;;;;57.42;28.30;;;;;;;;;;7352130;19;20275;-76
2024/01/14 00:49:17;;;;;;;60.80;28.63;;;;;;;;;;7364962;19;20326;-78
2024/01/14 00:51:42;;;;;;;64.30;28.67;;;;;;;;;;7366695;19;20483;-80
2024/01/14 00:54:07;;;;;;;60.97;27.25;;;;;;;;;;7361141;19;20090;-79
2024/01/14 00:56:33;;;;;;;65.60;28.55;;;;;;;;;;7364654;19;20272;-81
2024/01/14 00:58:58;;;;;;;60.70;28.85;;;;;;;;;;7368018;19;20392;-79
2024/01/14 01:01:23;;;;;;;61.40;28.90;;;;;;;;;;7363150;19;20034;-80
2024/01/14 01:03:48;;;;;;;60.90;28.20;;;;;;;;;;7361980;19;20275;-75
2024/01/14 01:06:13;;;;;;;69.05;28.58;;;;;;;;;;7370144;19;20525;-77
2024/01/14 01:08:38;;;;;;;57.13;28.35;;;;;;;;;;7361533;19;20618;-78
2024/01/14 01:11:05;;;;;;;60.88;27.77;;;;;;;;;;7370723;19;20007;-78
2024/01/14 01:13:30;;;;;;;68.10;27.83;;;;;;;;;;7364376;19;20267;-78
2024/01/14 01:15:56;;;;;;;60.27;26.10;;;;;;;;;;7358319;19;20022;-80
2024/01/14 01:18:21;;;;;;;61.45;27.35;;;;;;;;;;7363331;19;20867;-78
2024/01/14 01:20:48;;;;;;;58.17;27.08;;;;;;;;;;7366712;19;20006;-80
2024/01/14 01:23:13;;;;;;;58.83;25.92;;;;;;;;;;7369017;19;20294;-81
2024/01/14 01:25:38;;;;;;;61.63;25.65;;;;;;;;;;7364471;19;20007;-83
2024/01/14 01:28:04;;;;;;;58.53;25.73;;;;;;;;;;7353762;19;20374;-77
2024/01/14 01:30:29;;;;;;;50.47;23.48;;;;;;;;;;7300914;19;20811;-80
2024/01/14 01:32:54;;;;;;;54.03;24.73;;;;;;;;;;7348840;19;20427;-78
2024/01/14 01:35:20;;;;;;;51.20;24.08;;;;;;;;;;7366356;19;20033;-84
2024/01/14 01:37:45;;;;;;;52.05;24.85;;;;;;;;;;7355045;19;20499;-78
2024/01/14 01:40:11;;;;;;;57.22;24.77;;;;;;;;;;7368133;19;20102;-76
2024/01/14 01:42:36;;;;;;;50.15;24.40;;;;;;;;;;7364095;19;20613;-81
2024/01/14 01:45:02;;;;;;;52.92;23.63;;;;;;;;;;7348452;19;20722;-81
2024/01/14 01:47:27;;;;;;;48.63;23.50;;;;;;;;;;7360254;19;20009;-78
2024/01/14 01:49:53;;;;;;;51.17;23.05;;;;;;;;;;7358821;19;20006;-80
2024/01/14 01:52:18;;;;;;;43.72;23.08;;;;;;;;;;7367522;19;20006;-81
2024/01/14 01:54:44;;;;;;;50.30;23.15;;;;;;;;;;7363339;19;20014;-80
2024/01/14 01:57:09;;;;;;;45.90;22.30;;;;;;;;;;7365857;19;20002;-77
2024/01/14 01:59:35;;;;;;;48.95;22.50;;;;;;;;;;7350267;19;20483;-76
2024/01/14 02:02:00;;;;;;;49.20;22.95;;;;;;;;;;7346635;19;20025;-78
2024/01/14 02:04:27;;;;;;;44.65;22.15;;;;;;;;;;7367842;19;20006;-76
2024/01/14 02:06:52;;;;;;;45.35;22.15;;;;;;;;;;7364713;19;20686;-77
2024/01/14 02:09:18;;;;;;;42.33;20.65;;;;;;;;;;7359367;19;20324;-77
2024/01/14 02:11:43;;;;;;;47.20;21.33;;;;;;;;;;7358668;19;20014;-81
2024/01/14 02:14:08;;;;;;;43.72;20.80;;;;;;;;;;7352916;19;20003;-82
2024/01/14 02:16:33;;;;;;;47.60;21.77;;;;;;;;;;7354596;19;20002;-79
2024/01/14 02:18:58;;;;;;;45.78;22.20;;;;;;;;;;7362860;19;20081;-80
2024/01/14 02:21:27;;;;;;;42.75;21.13;;;;;;;;;;7368474;19;20267;-82
2024/01/14 02:23:55;;;;;;;42.28;21.40;;;;;;;;;;7361888;19;20630;-82
2024/01/14 02:26:21;;;;;;;47.63;20.20;;;;;;;;;;7359252;19;20022;-80
2024/01/14 02:28:46;;;;;;;43.25;20.58;;;;;;;;;;7358345;19;20006;-84
2024/01/14 02:31:11;;;;;;;38.95;20.52;;;;;;;;;;7257638;19;21226;-85
2024/01/14 02:33:36;;;;;;;41.25;19.92;;;;;;;;;;7181405;19;20014;-83
2024/01/14 02:36:01;;;;;;;41.42;19.30;;;;;;;;;;7181988;19;20014;-83
2024/01/14 02:38:27;;;;;;;40.88;21.38;;;;;;;;;;7195759;19;20466;-85
2024/01/14 02:40:52;;;;;;;38.45;19.98;;;;;;;;;;7184315;19;20011;-85
2024/01/14 02:43:17;;;;;;;41.30;20.23;;;;;;;;;;7180856;19;20508;-83
2024/01/14 02:45:42;;;;;;;39.42;20.20;;;;;;;;;;7184328;19;20498;-82
2024/01/14 02:48:08;;;;;;;37.42;18.58;;;;;;;;;;7189107;19;20014;-82
2024/01/14 02:50:33;;;;;;;37.78;17.83;;;;;;;;;;7193154;19;20743;-82
2024/01/14 02:52:59;;;;;;;41.42;18.48;;;;;;;;;;7176035;19;20449;-84
2024/01/14 02:55:24;;;;;;;36.05;18.50;;;;;;;;;;7172074;19;20002;-83
2024/01/14 02:57:49;;;;;;;38.97;19.38;;;;;;;;;;7182443;19;22084;-82
2024/01/14 03:00:15;;;;;;;39.97;19.40;;;;;;;;;;7179004;19;20015;-81
2024/01/14 03:02:41;;;;;;;35.88;19.23;;;;;;;;;;7191531;19;20345;-83
2024/01/14 03:05:07;;;;;;;37.30;19.25;;;;;;;;;;7189909;19;20487;-82
2024/01/14 03:07:32;;;;;;;37.20;18.38;;;;;;;;;;7174720;19;20574;-84
2024/01/14 03:09:57;;;;;;;38.40;18.52;;;;;;;;;;7186276;19;20017;-82
2024/01/14 03:12:22;;;;;;;36.38;18.88;;;;;;;;;;7184109;19;20613;-81
2024/01/14 03:14:48;;;;;;;38.08;19.00;;;;;;;;;;7186421;19;22135;-83
2024/01/14 03:17:13;;;;;;;36.10;18.38;;;;;;;;;;7191991;19;20302;-82
2024/01/14 03:19:38;;;;;;;39.40;18.60;;;;;;;;;;7187675;19;20996;-82
2024/01/14 03:22:03;;;;;;;41.97;18.60;;;;;;;;;;7184963;19;20520;-82
2024/01/14 03:24:28;;;;;;;33.63;18.13;;;;;;;;;;7185638;19;20010;-82
2024/01/14 03:26:54;;;;;;;36.72;18.95;;;;;;;;;;7183866;19;20059;-82
2024/01/14 03:29:19;;;;;;;36.65;18.23;;;;;;;;;;7181679;19;20243;-82
2024/01/14 03:31:44;;;;;;;40.58;20.55;;;;;;;;;;7304225;19;20581;-83
2024/01/14 03:34:09;;;;;;;36.28;18.58;;;;;;;;;;7356614;19;20042;-74
2024/01/14 03:36:34;;;;;;;41.00;19.57;;;;;;;;;;7353627;19;20280;-80
2024/01/14 03:38:59;;;;;;;40.23;20.00;;;;;;;;;;7360832;19;20779;-74
2024/01/14 03:41:25;;;;;;;39.25;19.75;;;;;;;;;;7366784;19;20288;-80
2024/01/14 03:43:50;;;;;;;41.28;19.40;;;;;;;;;;7346552;19;20014;-81
2024/01/14 03:46:15;;;;;;;37.53;17.63;;;;;;;;;;7344348;19;20003;-78
2024/01/14 03:48:40;;;;;;;36.95;19.23;;;;;;;;;;7363006;19;20294;-77
2024/01/14 03:51:05;;;;;;;39.10;18.90;;;;;;;;;;7356863;19;20034;-76
2024/01/14 03:53:31;;;;;;;36.10;17.67;;;;;;;;;;7358358;19;20006;-77
2024/01/14 03:55:56;;;;;;;34.67;17.90;;;;;;;;;;7349984;19;20010;-78
2024/01/14 03:58:21;;;;;;;36.13;17.95;;;;;;;;;;7363117;19;20003;-76
2024/01/14 04:00:46;;;;;;;34.85;17.05;;;;;;;;;;7362988;19;20288;-78
2024/01/14 04:03:11;;;;;;;36.88;17.77;;;;;;;;;;7366841;19;20082;-75
2024/01/14 04:05:37;;;;;;;32.33;16.50;;;;;;;;;;7373822;19;20034;-76
2024/01/14 04:08:02;;;;;;;32.45;16.95;;;;;;;;;;7363493;19;20029;-81
2024/01/14 04:10:27;;;;;;;30.13;16.02;;;;;;;;;;7369722;19;20344;-77
2024/01/14 04:12:52;;;;;;;29.27;15.47;;;;;;;;;;7363258;19;20351;-84
2024/01/14 04:15:20;;;;;;;30.08;16.33;;;;;;;;;;7360038;19;20633;-80
2024/01/14 04:17:46;;;;;;;28.65;15.70;;;;;;;;;;7370281;19;20007;-78
2024/01/14 04:20:11;;;;;;;31.50;15.65;;;;;;;;;;7370260;19;20037;-78
2024/01/14 04:22:36;;;;;;;31.05;15.60;;;;;;;;;;7372863;19;20006;-77
2024/01/14 04:25:01;;;;;;;40.17;18.93;;;;;;;;;;7359783;19;20022;-79
2024/01/14 04:27:26;;;;;;;35.08;17.05;;;;;;;;;;7366568;19;20379;-78
2024/01/14 04:29:51;;;;;;;35.35;17.60;;;;;;;;;;7360115;19;20090;-83
2024/01/14 04:32:17;;;;;;;35.78;17.73;;;;;;;;;;7345184;19;20284;-80
2024/01/14 04:34:42;;;;;;;35.42;17.40;;;;;;;;;;7369812;19;20019;-77
2024/01/14 04:37:07;;;;;;;33.13;17.83;;;;;;;;;;7365002;19;20260;-79
2024/01/14 04:39:32;;;;;;;35.03;17.13;;;;;;;;;;7363529;19;20263;-80
2024/01/14 04:41:58;;;;;;;37.70;17.75;;;;;;;;;;7365293;19;20017;-81
2024/01/14 04:44:23;;;;;;;34.20;17.30;;;;;;;;;;7360761;19;20002;-81
2024/01/14 04:46:48;;;;;;;30.25;16.27;;;;;;;;;;7360600;19;20007;-80
2024/01/14 04:49:13;;;;;;;35.92;17.20;;;;;;;;;;7366847;19;20276;-75
2024/01/14 04:51:38;;;;;;;35.55;17.33;;;;;;;;;;7369923;19;20017;-78
2024/01/14 04:54:03;;;;;;;36.40;16.60;;;;;;;;;;7360972;19;20298;-81
2024/01/14 04:56:29;;;;;;;32.20;16.73;;;;;;;;;;7369632;19;20439;-80
2024/01/14 04:58:54;;;;;;;35.30;18.92;;;;;;;;;;7365464;19;20533;-76
2024/01/14 05:01:19;;;;;;;32.25;16.92;;;;;;;;;;7338700;19;20014;-82
2024/01/14 05:03:44;;;;;;;34.00;17.15;;;;;;;;;;7369014;19;20088;-78
2024/01/14 05:06:10;;;;;;;30.73;15.70;;;;;;;;;;7368275;19;20019;-77
2024/01/14 05:08:36;;;;;;;34.03;16.77;;;;;;;;;;7366553;19;20669;-82
2024/01/14 05:11:01;;;;;;;35.45;16.95;;;;;;;;;;7362269;19;20027;-79
2024/01/14 05:13:27;;;;;;;36.55;16.95;;;;;;;;;;7366905;19;20010;-79
2024/01/14 05:15:52;;;;;;;39.60;18.10;;;;;;;;;;7354063;19;20275;-80
2024/01/14 05:18:17;;;;;;;38.30;17.98;;;;;;;;;;7358828;19;20376;-77
2024/01/14 05:20:42;;;;;;;36.28;17.63;;;;;;;;;;7371486;19;20523;-80
2024/01/14 05:23:08;;;;;;;33.35;17.25;;;;;;;;;;7363590;19;20310;-80
2024/01/14 05:25:33;;;;;;;34.55;17.95;;;;;;;;;;7360151;19;20015;-81
2024/01/14 05:27:58;;;;;;;37.00;17.60;;;;;;;;;;7361746;19;20015;-84
2024/01/14 05:30:23;;;;;;;35.72;18.17;;;;;;;;;;7346395;19;20030;-77
2024/01/14 05:32:48;;;;;;;32.17;16.33;;;;;;;;;;7366233;19;20020;-77
2024/01/14 05:35:14;;;;;;;36.70;17.30;;;;;;;;;;7356860;19;20006;-80
2024/01/14 05:37:39;;;;;;;36.60;17.15;;;;;;;;;;7364475;19;20811;-77
2024/01/14 05:40:05;;;;;;;38.85;16.75;;;;;;;;;;7358763;19;20015;-84
2024/01/14 05:42:30;;;;;;;30.75;16.35;;;;;;;;;;7356948;19;20021;-84
2024/01/14 05:44:55;;;;;;;35.45;17.40;;;;;;;;;;7352745;19;20029;-82
2024/01/14 05:47:20;;;;;;;35.28;17.38;;;;;;;;;;7359018;19;20010;-77
2024/01/14 05:49:45;;;;;;;40.15;18.35;;;;;;;;;;7365277;19;20019;-77
2024/01/14 05:52:11;;;;;;;42.97;20.67;;;;;;;;;;7361032;19;20014;-81
2024/01/14 05:54:36;;;;;;;41.78;19.13;;;;;;;;;;7365860;19;20037;-78
2024/01/14 05:57:01;;;;;;;47.67;19.90;;;;;;;;;;7369321;19;20006;-79
2024/01/14 05:59:26;;;;;;;39.88;19.02;;;;;;;;;;7360227;19;20011;-79
2024/01/14 06:01:51;;;;;;;43.08;19.85;;;;;;;;;;7359284;19;20486;-75
2024/01/14 06:04:17;;;;;;;41.10;19.23;;;;;;;;;;7363507;19;20010;-77
2024/01/14 06:06:42;;;;;;;42.55;19.55;;;;;;;;;;7368029;19;20342;-78
2024/01/14 06:09:07;;;;;;;41.95;18.92;;;;;;;;;;7317932;19;20011;-84
2024/01/14 06:11:32;;;;;;;45.17;19.67;;;;;;;;;;7355157;19;20805;-81
2024/01/14 06:13:57;;;;;;;46.33;20.60;;;;;;;;;;7366182;19;20093;-76
2024/01/14 06:16:23;;;;;;;43.53;19.83;;;;;;;;;;7350272;19;20827;-78
2024/01/14 06:18:48;;;;;;;42.25;18.70;;;;;;;;;;7368722;19;20007;-76
2024/01/14 06:21:13;;;;;;;39.33;17.92;;;;;;;;;;7365966;19;20021;-79
2024/01/14 06:23:38;;;;;;;39.60;18.08;;;;;;;;;;7363695;19;20263;-79
2024/01/14 06:26:03;;;;;;;42.22;18.65;;;;;;;;;;7361892;19;20125;-78
2024/01/14 06:28:29;;;;;;;39.40;17.90;;;;;;;;;;7358096;19;20002;-78
2024/01/14 06:30:54;;;;;;;35.92;16.83;;;;;;;;;;7357808;19;20078;-78
2024/01/14 06:33:20;;;;;;;37.10;17.05;;;;;;;;;;7362641;19;20283;-75
2024/01/14 06:35:45;;;;;;;35.92;17.45;;;;;;;;;;7366140;19;20667;-77
2024/01/14 06:38:10;;;;;;;36.72;17.27;;;;;;;;;;7359024;19;20005;-80
2024/01/14 06:40:35;;;;;;;35.55;16.77;;;;;;;;;;7359538;19;20006;-83
2024/01/14 06:43:00;;;;;;;37.05;17.67;;;;;;;;;;7366950;19;20283;-79
2024/01/14 06:45:26;;;;;;;35.88;16.80;;;;;;;;;;7353862;19;20011;-76
2024/01/14 06:47:51;;;;;;;34.63;16.80;;;;;;;;;;7365216;19;20018;-81
2024/01/14 06:50:16;;;;;;;39.22;17.73;;;;;;;;;;7360065;19;20010;-78
2024/01/14 06:52:42;;;;;;;32.78;15.60;;;;;;;;;;7354451;19;20015;-79
2024/01/14 06:55:07;;;;;;;39.83;18.15;;;;;;;;;;7365831;19;20395;-78
2024/01/14 06:57:33;;;;;;;39.20;18.83;;;;;;;;;;7359499;19;20010;-79
2024/01/14 06:59:59;;;;;;;42.65;19.23;;;;;;;;;;7358085;19;20349;-77
2024/01/14 07:02:24;;;;;;;43.05;18.35;;;;;;;;;;7362089;19;20062;-77
2024/01/14 07:04:49;;;;;;;40.30;18.75;;;;;;;;;;7367929;19;20102;-79
2024/01/14 07:07:14;;;;;;;37.35;17.13;;;;;;;;;;7362996;19;20015;-83
2024/01/14 07:09:39;;;;;;;39.38;17.73;;;;;;;;;;7360639;19;20286;-78
2024/01/14 07:12:05;;;;;;;40.83;19.77;;;;;;;;;;7365600;19;20279;-78
2024/01/14 07:14:30;;;;;;;39.80;19.42;;;;;;;;;;7331237;19;19998;-82
2024/01/14 07:16:55;;;;;;;40.17;18.05;;;;;;;;;;7343681;19;20594;-82
2024/01/14 07:19:20;;;;;;;41.78;17.58;;;;;;;;;;7359648;19;20259;-75
2024/01/14 07:21:46;;;;;;;42.83;18.98;;;;;;;;;;7365351;19;20015;-80
2024/01/14 07:24:11;;;;;;;39.08;17.55;;;;;;;;;;7359715;19;20346;-77
2024/01/14 07:26:36;;;;;;;42.72;20.15;;;;;;;;;;7346176;19;20761;-76
2024/01/14 07:29:01;;;;;;;40.50;18.30;;;;;;;;;;7359095;19;20010;-83
2024/01/14 07:31:27;;;;;;;40.90;18.35;;;;;;;;;;7352194;19;20010;-77
2024/01/14 07:33:52;;;;;;;45.20;19.60;;;;;;;;;;7365655;19;20344;-80
2024/01/14 07:36:18;;;;;;;39.92;18.92;;;;;;;;;;7367538;19;20461;-82
2024/01/14 07:38:43;;;;;;;41.13;19.08;;;;;;;;;;7366986;19;20029;-75
2024/01/14 07:41:12;;;;;;;43.58;18.70;;;;;;;;;;7370183;19;20015;-79
2024/01/14 07:43:37;;;;;;;44.00;19.20;;;;;;;;;;7367401;19;20041;-77
2024/01/14 07:46:02;;;;;;;44.38;18.33;;;;;;;;;;7348138;19;20042;-75
2024/01/14 07:48:28;;;;;;;46.78;19.05;;;;;;;;;;7366088;19;21062;-78
2024/01/14 07:50:53;;;;;;;41.67;19.52;;;;;;;;;;7369697;19;20471;-77
2024/01/14 07:53:18;;;;;;;47.28;19.23;;;;;;;;;;7370971;19;20044;-77
2024/01/14 07:55:44;;;;;;;42.20;18.35;;;;;;;;;;7361415;19;20020;-77
2024/01/14 07:58:11;;;;;;;42.85;17.63;;;;;;;;;;7368700;19;20054;-79
2024/01/14 08:00:36;;;;;;;40.53;18.05;;;;;;;;;;7358787;19;20014;-76
2024/01/14 08:03:01;;;;;;;42.65;16.83;;;;;;;;;;7369787;19;20014;-81
2024/01/14 08:05:26;;;;;;;38.05;16.00;;;;;;;;;;7370138;19;20629;-82
2024/01/14 08:07:52;;;;;;;34.17;16.10;;;;;;;;;;7367942;19;20114;-77
2024/01/14 08:10:17;;;;;;;33.85;16.90;;;;;;;;;;7368826;19;20493;-80
2024/01/14 08:12:42;;;;;;;33.67;16.23;;;;;;;;;;7364319;19;20090;-77
2024/01/14 08:15:07;;;;;;;34.16;15.20;;;;;;;;;;7351195;19;20014;-81
2024/01/14 08:17:32;;;;;;;34.65;15.80;;;;;;;;;;7361185;19;20010;-81
2024/01/14 08:19:57;;;;;;;31.75;14.95;;;;;;;;;;7372443;19;20011;-80
2024/01/14 08:22:23;;;;;;;30.52;14.02;;;;;;;;;;7371832;19;20263;-77
2024/01/14 08:24:48;;;;;;;31.23;14.70;;;;;;;;;;7361087;19;21162;-78
2024/01/14 08:27:15;;;;;;;30.90;14.15;;;;;;;;;;7356855;19;20056;-83
2024/01/14 08:29:40;;;;;;;31.85;14.57;;;;;;;;;;7355763;19;20006;-78
2024/01/14 08:32:05;;;;;;;31.92;13.77;;;;;;;;;;7355097;19;20512;-82
2024/01/14 08:34:31;;;;;;;27.70;13.05;;;;;;;;;;7346337;19;20343;-83
2024/01/14 08:36:56;;;;;;;22.40;10.77;;;;;;;;;;7352387;19;20143;-79
2024/01/14 08:39:21;;;;;;;24.60;11.60;;;;;;;;;;7356572;19;20279;-78
2024/01/14 08:41:46;;;;;;;25.27;12.43;;;;;;;;;;7350393;19;20279;-80
2024/01/14 08:44:12;;;;;;;26.17;12.13;;;;;;;;;;7365874;19;20771;-82
2024/01/14 08:46:40;;;;;;;23.75;12.05;;;;;;;;;;7357511;19;20048;-81
2024/01/14 08:49:05;;;;;;;27.85;13.75;;;;;;;;;;7367818;19;20021;-78
2024/01/14 08:51:31;;;;;;;28.45;13.40;;;;;;;;;;7365481;19;20695;-83
2024/01/14 08:54:00;;;;;;;27.52;13.05;;;;;;;;;;7366056;19;20010;-83
2024/01/14 08:56:26;;;;;;;24.45;12.40;;;;;;;;;;7369619;19;20335;-78
2024/01/14 08:58:51;;;;;;;25.35;12.30;;;;;;;;;;7365877;19;20006;-78
2024/01/14 09:01:17;;;;;;;29.35;13.25;;;;;;;;;;7362204;19;20471;-80
2024/01/14 09:03:43;;;;;;;28.15;14.05;;;;;;;;;;7366012;19;20636;-76
2024/01/14 09:06:09;;;;;;;29.63;13.63;;;;;;;;;;7363799;19;20014;-81
2024/01/14 09:08:34;;;;;;;27.20;13.05;;;;;;;;;;7358730;19;20010;-81
2024/01/14 09:10:59;;;;;;;27.73;11.57;;;;;;;;;;7353316;19;20519;-79
2024/01/14 09:13:25;;;;;;;27.58;13.32;;;;;;;;;;7368251;19;20013;-76
2024/01/14 09:15:50;;;;;;;26.73;13.48;;;;;;;;;;7349408;19;20006;-75
2024/01/14 09:18:15;;;;;;;28.95;13.98;;;;;;;;;;7366397;19;22473;-78
2024/01/14 09:20:40;;;;;;;29.67;13.70;;;;;;;;;;7365447;19;20010;-81
2024/01/14 09:23:05;;;;;;;43.60;15.35;;;;;;;;;;7367817;19;20598;-79
2024/01/14 09:25:30;;;;;;;33.00;14.77;;;;;;;;;;7358494;19;20050;-84
2024/01/14 09:27:56;;;;;;;30.38;14.30;;;;;;;;;;7362729;19;19999;-80
2024/01/14 09:30:21;;;;;;;30.38;14.40;;;;;;;;;;7331694;19;20074;-82
2024/01/14 09:32:46;;;;;;;27.00;13.88;;;;;;;;;;7365917;19;20017;-79
2024/01/14 09:35:11;;;;;;;33.03;15.25;;;;;;;;;;7369232;19;20007;-77
2024/01/14 09:37:36;;;;;;;31.42;15.25;;;;;;;;;;7366760;19;20010;-79
2024/01/14 09:40:02;;;;;;;35.28;15.20;;;;;;;;;;7353408;19;20007;-79
2024/01/14 09:42:34;;;;;;;38.63;15.75;;;;;;;;;;7351685;19;20038;-81
2024/01/14 09:45:00;;;;;;;39.05;13.82;;;;;;;;;;7351847;19;20069;-84
2024/01/14 09:47:25;;;;;;;42.45;13.82;;;;;;;;;;7339781;19;20025;-78
2024/01/14 09:49:51;;;;;;;28.25;14.27;;;;;;;;;;7362731;19;20106;-81
2024/01/14 09:52:16;;;;;;;33.58;14.38;;;;;;;;;;7369557;19;20044;-82
2024/01/14 09:54:42;;;;;;;26.05;13.27;;;;;;;;;;7363698;19;20031;-80
2024/01/14 09:57:11;;;;;;;29.67;15.05;;;;;;;;;;7354749;19;20009;-77
2024/01/14 09:59:37;;;;;;;26.40;14.10;;;;;;;;;;7359997;19;20018;-84
2024/01/14 10:02:03;;;;;;;30.98;15.07;;;;;;;;;;7340684;19;20014;-83
2024/01/14 10:04:28;;;;;;;29.88;14.75;;;;;;;;;;7364075;19;20361;-81
2024/01/14 10:06:54;;;;;;;33.33;12.90;;;;;;;;;;7364868;19;20018;-80
2024/01/14 10:09:19;;;;;;;40.13;13.43;;;;;;;;;;7368785;19;20913;-79
2024/01/14 10:11:46;;;;;;;46.83;13.88;;;;;;;;;;7356037;19;20509;-83
2024/01/14 10:14:11;;;;;;;33.50;13.73;;;;;;;;;;7365504;19;20456;-79
2024/01/14 10:16:39;;;;;;;51.85;13.55;;;;;;;;;;7353747;19;20102;-80
2024/01/14 10:19:04;;;;;;;33.42;14.77;;;;;;;;;;7350275;19;20015;-77
2024/01/14 10:21:30;;;;;;;29.77;13.88;;;;;;;;;;7354316;19;20026;-81
2024/01/14 10:23:55;;;;;;;53.15;15.05;;;;;;;;;;7358566;19;20074;-79
2024/01/14 10:26:21;;;;;;;40.60;13.45;;;;;;;;;;7352827;19;20011;-79
2024/01/14 10:28:47;;;;;;;30.98;14.30;;;;;;;;;;7354305;19;20018;-80
2024/01/14 10:31:12;;;;;;;32.42;13.38;;;;;;;;;;7350178;19;20014;-81
2024/01/14 10:33:37;;;;;;;27.83;13.60;;;;;;;;;;7360621;19;20283;-81
2024/01/14 10:36:06;;;;;;;26.45;12.77;;;;;;;;;;7362042;19;20014;-81
2024/01/14 10:38:32;;;;;;;29.77;13.80;;;;;;;;;;7358543;19;21095;-79
2024/01/14 10:40:57;;;;;;;30.02;14.02;;;;;;;;;;7363259;19;20026;-78
2024/01/14 10:43:26;;;;;;;37.15;12.77;;;;;;;;;;7368860;19;20014;-81
2024/01/14 10:45:52;;;;;;;30.88;13.82;;;;;;;;;;7318191;19;20554;-78
2024/01/14 10:48:25;;;;;;;33.55;13.68;;;;;;;;;;7366048;19;20021;-78
2024/01/14 10:50:52;;;;;;;29.05;13.35;;;;;;;;;;7359206;19;20369;-83
2024/01/14 10:53:24;;;;;;;30.67;13.93;;;;;;;;;;7353580;19;20014;-79
2024/01/14 10:55:53;;;;;;;39.75;13.45;;;;;;;;;;7353505;19;20021;-81
2024/01/14 10:58:26;;;;;;;53.45;13.55;;;;;;;;;;7360904;19;20034;-78
2024/01/14 11:00:52;;;;;;;28.65;12.13;;;;;;;;;;7355600;19;20033;-78
2024/01/14 11:03:17;;;;;;;24.83;12.70;;;;;;;;;;7363161;19;20006;-79
2024/01/14 11:05:42;;;;;;;23.02;12.32;;;;;;;;;;7366951;19;20011;-76
2024/01/14 11:08:08;;;;;;;23.58;12.60;;;;;;;;;;7349808;19;20704;-78
2024/01/14 11:10:33;;;;;;;26.23;12.30;;;;;;;;;;7358349;19;20058;-82
2024/01/14 11:13:07;;;;;;;21.85;11.25;;;;;;;;;;7361313;19;20011;-78
2024/01/14 11:15:37;;;;;;;20.73;10.70;;;;;;;;;;7350271;19;20013;-79
2024/01/14 11:18:12;;;;;;;21.88;11.52;;;;;;;;;;7363883;19;20542;-79
2024/01/14 11:20:40;;;;;;;39.75;10.90;;;;;;;;;;7369683;19;20038;-81
2024/01/14 11:23:05;;;;;;;40.75;10.80;;;;;;;;;;7367841;19;20014;-80
2024/01/14 11:25:31;;;;;;;21.27;10.40;;;;;;;;;;7372973;19;20010;-79
2024/01/14 11:27:57;;;;;;;22.08;10.52;;;;;;;;;;7359577;19;20297;-78
2024/01/14 11:30:42;;;;;;;29.25;10.45;;;;;;;;;;7350073;19;20010;-79
2024/01/14 11:33:26;;;;;;;56.10;11.38;;;;;;;;;;7364091;19;20041;-78
2024/01/14 11:35:51;;;;;;;25.60;11.38;;;;;;;;;;7365971;19;20016;-81
2024/01/14 11:38:33;;;;;;;37.60;11.73;;;;;;;;;;7368854;19;20014;-80
2024/01/14 11:40:58;;;;;;;21.95;10.85;;;;;;;;;;7358700;19;21059;-77
2024/01/14 11:43:27;;;;;;;25.23;11.70;;;;;;;;;;7368212;19;20062;-78
2024/01/14 11:45:52;;;;;;;25.88;11.50;;;;;;;;;;7350316;19;20045;-77
2024/01/14 11:48:17;;;;;;;23.60;11.35;;;;;;;;;;7366336;19;20078;-77
2024/01/14 11:50:42;;;;;;;25.85;11.13;;;;;;;;;;7364021;19;20264;-79
2024/01/14 11:53:08;;;;;;;33.45;12.65;;;;;;;;;;7360319;19;20483;-81
2024/01/14 11:55:33;;;;;;;23.80;11.35;;;;;;;;;;7362231;19;20085;-82
2024/01/14 11:58:09;;;;;;;21.88;10.65;;;;;;;;;;7362281;19;20132;-79
2024/01/14 12:00:36;;;;;;;21.23;10.93;;;;;;;;;;7356026;19;20347;-80
2024/01/14 12:03:04;;;;;;;23.20;10.95;;;;;;;;;;7364537;19;20010;-80
2024/01/14 12:05:29;;;;;;;21.60;10.80;;;;;;;;;;7364954;19;20011;-79
2024/01/14 12:07:55;;;;;;;18.95;10.30;;;;;;;;;;7354675;19;20329;-78
2024/01/14 12:10:20;;;;;;;18.90;9.43;;;;;;;;;;7352917;19;20581;-78
2024/01/14 12:12:45;;;;;;;18.85;10.60;;;;;;;;;;7367324;19;20015;-79
2024/01/14 12:15:11;;;;;;;19.05;9.98;;;;;;;;;;7347055;19;21908;-81
2024/01/14 12:17:36;;;;;;;32.13;11.52;;;;;;;;;;7365443;19;20025;-77
2024/01/14 12:20:04;;;;;;;22.58;11.02;;;;;;;;;;7305513;19;20467;-80
2024/01/14 12:22:29;;;;;;;30.08;11.63;;;;;;;;;;7299765;19;20727;-81
2024/01/14 12:24:55;;;;;;;30.38;11.63;;;;;;;;;;7304711;19;20014;-82
2024/01/14 12:27:20;;;;;;;20.38;10.20;;;;;;;;;;7346852;19;20081;-78
2024/01/14 12:29:45;;;;;;;22.08;11.23;;;;;;;;;;7362438;19;20018;-79
2024/01/14 12:32:11;;;;;;;17.83;9.45;;;;;;;;;;7335689;19;20018;-79
2024/01/14 12:34:43;;;;;;;18.88;9.50;;;;;;;;;;7320189;19;20014;-82
2024/01/14 12:37:10;;;;;;;18.98;9.75;;;;;;;;;;7345688;19;20039;-82
2024/01/14 12:39:35;;;;;;;24.45;10.55;;;;;;;;;;7362872;19;20009;-81
2024/01/14 12:42:00;;;;;;;31.73;10.45;;;;;;;;;;7350115;19;20007;-82
2024/01/14 12:44:26;;;;;;;27.52;10.30;;;;;;;;;;7359286;19;20466;-80
2024/01/14 12:46:54;;;;;;;18.20;8.98;;;;;;;;;;7350718;19;20011;-83
2024/01/14 12:49:20;;;;;;;22.90;11.45;;;;;;;;;;7350252;19;20010;-82
2024/01/14 12:51:45;;;;;;;22.60;9.63;;;;;;;;;;7279174;19;20018;-81
2024/01/14 12:54:11;;;;;;;30.15;10.25;;;;;;;;;;7320649;19;20002;-83
2024/01/14 12:56:37;;;;;;;20.75;9.45;;;;;;;;;;7327077;19;20029;-79
2024/01/14 12:59:03;;;;;;;25.70;10.43;;;;;;;;;;7348634;19;20017;-82
2024/01/14 13:01:28;;;;;;;29.13;11.23;;;;;;;;;;7335628;19;20002;-80
2024/01/14 13:03:53;;;;;;;23.30;10.65;;;;;;;;;;7352960;19;20624;-85
2024/01/14 13:06:18;;;;;;;29.25;11.15;;;;;;;;;;7345730;19;20029;-78
2024/01/14 13:08:44;;;;;;;28.90;11.57;;;;;;;;;;7363692;19;20006;-81
2024/01/14 13:11:09;;;;;;;31.73;11.15;;;;;;;;;;7355262;19;20010;-82
2024/01/14 13:13:37;;;;;;;20.92;11.07;;;;;;;;;;7355259;19;20006;-79
2024/01/14 13:16:04;;;;;;;24.38;10.07;;;;;;;;;;7338672;19;20356;-84
2024/01/14 13:18:29;;;;;;;29.92;11.27;;;;;;;;;;7359257;19;20082;-78
2024/01/14 13:20:55;;;;;;;24.52;12.20;;;;;;;;;;7364361;19;20102;-79
2024/01/14 13:23:20;;;;;;;53.78;12.93;;;;;;;;;;7341402;19;21534;-81
2024/01/14 13:25:45;;;;;;;24.05;11.63;;;;;;;;;;7360911;19;20018;-78
2024/01/14 13:28:11;;;;;;;24.85;11.65;;;;;;;;;;7342538;19;20370;-78
2024/01/14 13:30:36;;;;;;;28.75;12.15;;;;;;;;;;7350800;19;20276;-80
2024/01/14 13:33:01;;;;;;;23.33;12.40;;;;;;;;;;7340847;19;20366;-87
2024/01/14 13:35:26;;;;;;;22.92;11.93;;;;;;;;;;7350159;19;20436;-77
2024/01/14 13:37:52;;;;;;;24.45;11.05;;;;;;;;;;7363024;19;20045;-81
2024/01/14 13:40:17;;;;;;;23.40;10.77;;;;;;;;;;7360393;19;20015;-80
2024/01/14 13:42:42;;;;;;;21.15;10.40;;;;;;;;;;7359956;19;20002;-81
2024/01/14 13:45:09;;;;;;;21.95;10.95;;;;;;;;;;7353198;19;20388;-84
2024/01/14 13:47:34;;;;;;;20.85;10.90;;;;;;;;;;7364423;19;20045;-83
2024/01/14 13:49:59;;;;;;;19.42;9.75;;;;;;;;;;7362947;19;20580;-82
2024/01/14 13:52:25;;;;;;;20.42;10.55;;;;;;;;;;7356284;19;20002;-80
2024/01/14 13:54:50;;;;;;;20.95;10.05;;;;;;;;;;7355755;19;20007;-77
2024/01/14 13:57:15;;;;;;;19.35;9.88;;;;;;;;;;7347857;19;20271;-80
2024/01/14 13:59:42;;;;;;;20.52;10.80;;;;;;;;;;7363378;19;19999;-77
2024/01/14 14:02:07;;;;;;;20.70;11.10;;;;;;;;;;7353495;19;20041;-83
2024/01/14 14:04:32;;;;;;;36.55;11.98;;;;;;;;;;7360797;19;20037;-81
2024/01/14 14:06:58;;;;;;;22.40;10.57;;;;;;;;;;7359527;19;20363;-81
2024/01/14 14:09:23;;;;;;;29.10;11.55;;;;;;;;;;7346640;19;20010;-84